createdAt,value
2018-06-20T00:01:09.914Z,11.83
2018-06-20T00:03:37.629Z,11.50
2018-06-20T00:06:05.864Z,7.97
2018-06-20T00:08:37.824Z,9.57
2018-06-20T00:11:05.218Z,8.63
2018-06-20T00:13:32.683Z,7.23
2018-06-20T00:16:00.254Z,7.40
2018-06-20T00:18:27.539Z,9.63
2018-06-20T00:20:54.804Z,9.10
2018-06-20T00:23:22.098Z,9.90
2018-06-20T00:25:49.622Z,8.23
2018-06-20T00:28:17.549Z,8.50
2018-06-20T00:30:44.928Z,8.80
2018-06-20T00:33:12.632Z,7.97
2018-06-20T00:35:39.892Z,7.87
2018-06-20T00:38:07.848Z,11.30
2018-06-20T00:40:35.156Z,8.00
2018-06-20T00:43:03.074Z,8.67
2018-06-20T00:45:30.379Z,10.67
2018-06-20T00:47:58.123Z,8.00
2018-06-20T00:50:25.400Z,8.33
2018-06-20T00:52:52.727Z,8.67
2018-06-20T00:55:30.415Z,10.00
2018-06-20T00:57:57.834Z,10.73
2018-06-20T01:00:25.180Z,9.80
2018-06-20T01:02:52.576Z,9.30
2018-06-20T01:05:19.896Z,9.43
2018-06-20T01:07:47.228Z,9.30
2018-06-20T01:10:14.607Z,10.27
2018-06-20T01:12:42.033Z,10.23
2018-06-20T01:15:09.387Z,10.53
2018-06-20T01:17:36.820Z,10.87
2018-06-20T01:20:04.247Z,11.03
2018-06-20T01:22:32.058Z,10.00
2018-06-20T01:24:59.371Z,12.77
2018-06-20T01:27:26.780Z,9.20
2018-06-20T01:29:54.502Z,9.43
2018-06-20T01:32:22.039Z,10.53
2018-06-20T01:34:49.283Z,9.90
2018-06-20T01:37:16.533Z,10.47
2018-06-20T01:39:43.783Z,9.77
2018-06-20T01:42:11.034Z,10.20
2018-06-20T01:44:38.288Z,10.30
2018-06-20T01:47:05.531Z,10.53
2018-06-20T01:49:32.871Z,9.67
2018-06-20T01:52:00.477Z,10.97
2018-06-20T01:54:27.744Z,9.57
2018-06-20T01:56:54.988Z,10.50
2018-06-20T01:59:22.249Z,11.30
2018-06-20T02:01:49.519Z,10.17
2018-06-20T02:04:16.803Z,10.17
2018-06-20T02:06:44.060Z,10.23
2018-06-20T02:09:11.307Z,10.83
2018-06-20T02:11:38.596Z,12.00
2018-06-20T02:14:05.808Z,9.47
2018-06-20T02:16:33.047Z,9.87
2018-06-20T02:19:00.371Z,9.33
2018-06-20T02:21:28.156Z,9.60
2018-06-20T02:23:55.396Z,9.40
2018-06-20T02:26:22.643Z,9.60
2018-06-20T02:28:49.884Z,9.30
2018-06-20T02:31:17.138Z,10.47
2018-06-20T02:33:44.637Z,10.77
2018-06-20T02:36:17.500Z,12.43
2018-06-20T02:38:45.025Z,11.50
2018-06-20T02:41:12.408Z,10.33
2018-06-20T02:43:39.646Z,10.60
2018-06-20T02:46:06.894Z,11.13
2018-06-20T02:48:34.187Z,10.63
2018-06-20T02:51:01.601Z,10.20
2018-06-20T02:53:29.152Z,10.17
2018-06-20T02:55:56.375Z,10.70
2018-06-20T02:58:23.616Z,10.80
2018-06-20T03:00:50.877Z,10.57
2018-06-20T03:03:18.148Z,10.43
2018-06-20T03:05:45.432Z,10.77
2018-06-20T03:08:12.712Z,10.80
2018-06-20T03:10:39.961Z,10.40
2018-06-20T03:13:07.240Z,10.17
2018-06-20T03:15:34.497Z,10.43
2018-06-20T03:18:01.783Z,10.63
2018-06-20T03:20:29.015Z,13.93
2018-06-20T03:22:56.255Z,11.20
2018-06-20T03:25:23.498Z,12.33
2018-06-20T03:27:50.813Z,10.80
2018-06-20T03:30:18.095Z,9.67
2018-06-20T03:32:45.403Z,10.83
2018-06-20T03:35:12.731Z,13.23
2018-06-20T03:37:39.997Z,10.50
2018-06-20T03:40:07.259Z,10.27
2018-06-20T03:42:34.528Z,10.83
2018-06-20T03:45:01.803Z,10.17
2018-06-20T03:47:29.075Z,10.90
2018-06-20T03:49:56.353Z,10.10
2018-06-20T03:52:23.642Z,10.50
2018-06-20T03:54:50.918Z,10.77
2018-06-20T03:57:18.167Z,11.43
2018-06-20T03:59:45.635Z,12.43
2018-06-20T04:02:12.970Z,10.53
2018-06-20T04:04:40.199Z,10.37
2018-06-20T04:07:07.440Z,11.90
2018-06-20T04:09:34.727Z,10.60
2018-06-20T04:12:01.978Z,10.27
2018-06-20T04:14:29.299Z,10.30
2018-06-20T04:16:56.524Z,10.00
2018-06-20T04:19:24.193Z,10.83
2018-06-20T04:21:51.762Z,11.33
2018-06-20T04:24:19.034Z,10.80
2018-06-20T04:26:46.264Z,11.12
2018-06-20T04:29:13.529Z,12.53
2018-06-20T04:31:40.789Z,15.60
2018-06-20T04:34:08.059Z,12.03
2018-06-20T04:36:35.331Z,11.00
2018-06-20T04:39:02.833Z,11.43
2018-06-20T04:41:30.068Z,10.60
2018-06-20T04:43:57.304Z,11.70
2018-06-20T04:46:24.543Z,11.20
2018-06-20T04:48:51.792Z,13.30
2018-06-20T04:51:19.155Z,10.60
2018-06-20T04:53:46.463Z,11.17
2018-06-20T04:56:14.146Z,10.90
2018-06-20T04:58:41.470Z,11.63
2018-06-20T05:01:08.764Z,11.63
2018-06-20T05:03:36.030Z,12.40
2018-06-20T05:06:03.420Z,11.80
2018-06-20T05:08:30.789Z,12.75
2018-06-20T05:10:58.132Z,12.18
2018-06-20T05:13:25.552Z,13.48
2018-06-20T05:15:52.920Z,11.22
2018-06-20T05:18:20.359Z,13.40
2018-06-20T05:20:47.682Z,12.65
2018-06-20T05:23:15.028Z,14.60
2018-06-20T05:25:42.328Z,12.95
2018-06-20T05:28:09.645Z,12.70
2018-06-20T05:30:37.051Z,13.08
2018-06-20T05:33:04.531Z,13.32
2018-06-20T05:35:31.905Z,13.43
2018-06-20T05:37:59.291Z,13.48
2018-06-20T05:40:26.592Z,13.25
2018-06-20T05:42:53.842Z,14.55
2018-06-20T05:45:21.096Z,13.98
2018-06-20T05:47:48.415Z,16.73
2018-06-20T05:50:15.639Z,17.62
2018-06-20T05:52:42.870Z,12.73
2018-06-20T05:55:10.083Z,12.93
2018-06-20T05:57:37.371Z,13.00
2018-06-20T06:00:04.656Z,10.75
2018-06-20T06:02:32.582Z,11.38
2018-06-20T06:04:59.861Z,11.68
2018-06-20T06:07:27.135Z,17.00
2018-06-20T06:09:54.382Z,14.85
2018-06-20T06:12:21.651Z,11.97
2018-06-20T06:14:48.935Z,12.45
2018-06-20T06:17:16.290Z,11.68
2018-06-20T06:19:43.531Z,12.93
2018-06-20T06:22:11.809Z,11.75
2018-06-20T06:24:39.040Z,12.98
2018-06-20T06:27:06.360Z,10.25
2018-06-20T06:29:33.615Z,10.50
2018-06-20T06:32:00.852Z,10.20
2018-06-20T06:34:28.078Z,8.80
2018-06-20T06:36:55.339Z,9.63
2018-06-20T06:39:22.661Z,11.88
2018-06-20T06:41:49.870Z,10.30
2018-06-20T06:44:17.113Z,9.38
2018-06-20T06:46:44.388Z,9.15
2018-06-20T06:49:11.623Z,9.95
2018-06-20T06:51:38.846Z,10.48
2018-06-20T06:54:06.100Z,8.50
2018-06-20T06:56:33.351Z,8.05
2018-06-20T06:59:00.635Z,8.28
2018-06-20T07:01:27.903Z,7.90
2018-06-20T07:03:55.225Z,7.60
2018-06-20T07:06:22.479Z,7.08
2018-06-20T07:08:49.777Z,7.60
2018-06-20T07:11:17.020Z,8.00
2018-06-20T07:13:44.250Z,6.75
2018-06-20T07:16:11.616Z,6.97
2018-06-20T07:18:38.912Z,6.65
2018-06-20T07:21:06.352Z,9.33
2018-06-20T07:23:33.593Z,9.53
2018-06-20T07:26:00.877Z,8.33
2018-06-20T07:28:28.115Z,6.10
2018-06-20T07:30:55.388Z,7.03
2018-06-20T07:33:22.611Z,6.72
2018-06-20T07:35:49.992Z,6.92
2018-06-20T07:38:17.199Z,6.22
2018-06-20T07:40:44.403Z,6.67
2018-06-20T07:43:11.632Z,4.97
2018-06-20T07:45:38.848Z,5.87
2018-06-20T07:48:06.516Z,6.40
2018-06-20T07:50:33.748Z,5.65
2018-06-20T07:53:01.117Z,5.70
2018-06-20T07:55:28.355Z,4.95
2018-06-20T07:57:55.607Z,3.83
2018-06-20T08:00:28.618Z,6.00
2018-06-20T08:03:12.883Z,4.47
2018-06-20T08:05:45.683Z,3.52
2018-06-20T08:08:19.032Z,4.53
2018-06-20T08:10:51.854Z,5.12
2018-06-20T08:13:24.811Z,5.45
2018-06-20T08:15:57.708Z,3.65
2018-06-20T08:18:30.638Z,3.77
2018-06-20T08:20:57.894Z,4.50
2018-06-20T08:23:25.147Z,3.40
2018-06-20T08:25:53.206Z,3.83
2018-06-20T08:28:20.363Z,3.00
2018-06-20T08:30:47.637Z,4.85
2018-06-20T08:33:14.863Z,3.37
2018-06-20T08:35:42.632Z,3.10
2018-06-20T08:38:09.860Z,5.03
2018-06-20T08:40:37.509Z,2.80
2018-06-20T08:43:04.794Z,2.60
2018-06-20T08:45:32.096Z,3.45
2018-06-20T08:47:59.437Z,2.70
2018-06-20T08:50:26.699Z,3.62
2018-06-20T08:52:53.929Z,3.25
2018-06-20T08:55:21.203Z,2.60
2018-06-20T08:57:48.660Z,2.55
2018-06-20T09:00:21.483Z,2.70
2018-06-20T09:02:48.734Z,3.27
2018-06-20T09:05:21.716Z,3.83
2018-06-20T09:07:54.707Z,2.90
2018-06-20T09:10:27.631Z,3.98
2018-06-20T09:13:00.469Z,3.15
2018-06-20T09:15:33.319Z,3.12
2018-06-20T09:20:10.255Z,3.58
2018-06-20T09:22:37.569Z,3.72
2018-06-20T09:25:04.876Z,3.08
2018-06-20T09:27:32.140Z,2.37
2018-06-20T09:30:00.112Z,3.37
2018-06-20T09:32:27.363Z,2.62
2018-06-20T09:34:54.623Z,2.30
2018-06-20T09:37:21.898Z,1.62
2018-06-20T09:39:49.244Z,1.70
2018-06-20T09:42:16.536Z,1.98
2018-06-20T09:44:43.843Z,3.45
2018-06-20T09:47:11.083Z,3.72
2018-06-20T09:49:38.363Z,1.85
2018-06-20T09:52:05.677Z,3.75
2018-06-20T09:54:32.967Z,2.08
2018-06-20T09:57:00.278Z,3.15
2018-06-20T09:59:33.195Z,2.45
2018-06-20T10:02:06.056Z,2.52
2018-06-20T10:04:38.936Z,2.33
2018-06-20T10:07:11.836Z,2.50
2018-06-20T10:09:44.666Z,1.87
2018-06-20T10:12:16.591Z,1.80
2018-06-20T10:14:43.820Z,3.00
2018-06-20T10:17:11.149Z,3.05
2018-06-20T10:19:38.466Z,1.45
2018-06-20T10:22:06.216Z,2.02
2018-06-20T10:24:33.608Z,3.12
2018-06-20T10:27:00.843Z,1.98
2018-06-20T10:29:28.104Z,1.82
2018-06-20T10:31:55.387Z,2.08
2018-06-20T10:34:22.648Z,1.95
2018-06-20T10:36:50.078Z,1.90
2018-06-20T10:39:17.531Z,1.50
2018-06-20T10:41:44.828Z,2.60
2018-06-20T10:44:14.075Z,2.58
2018-06-20T10:46:47.152Z,2.92
2018-06-20T10:49:16.345Z,5.17
2018-06-20T10:51:44.272Z,2.15
2018-06-20T10:54:11.523Z,3.02
2018-06-20T10:56:44.566Z,1.42
2018-06-20T10:59:18.046Z,1.40
2018-06-20T11:01:50.908Z,2.17
2018-06-20T11:04:24.032Z,2.02
2018-06-20T11:06:57.093Z,1.70
2018-06-20T11:09:30.217Z,1.45
2018-06-20T11:12:03.336Z,4.42
2018-06-20T11:14:30.595Z,1.42
2018-06-20T11:16:57.866Z,1.72
2018-06-20T11:19:25.278Z,1.42
2018-06-20T11:21:52.582Z,2.33
2018-06-20T11:24:19.846Z,1.40
2018-06-20T11:26:47.203Z,2.17
2018-06-20T11:29:14.579Z,1.57
2018-06-20T11:31:42.003Z,1.45
2018-06-20T11:34:09.244Z,1.92
2018-06-20T11:36:36.516Z,1.40
2018-06-20T11:39:06.557Z,1.20
2018-06-20T11:41:34.597Z,2.90
2018-06-20T11:44:02.063Z,3.08
2018-06-20T11:46:35.028Z,1.92
2018-06-20T11:49:02.367Z,3.08
2018-06-20T11:51:29.624Z,1.20
2018-06-20T11:53:56.851Z,1.20
2018-06-20T11:56:24.129Z,3.98
2018-06-20T11:58:57.001Z,4.42
2018-06-20T12:01:29.914Z,1.92
2018-06-20T12:04:02.800Z,1.25
2018-06-20T12:07:36.082Z,1.80
2018-06-20T12:10:09.124Z,2.12
2018-06-20T12:12:42.132Z,3.12
2018-06-20T12:15:15.088Z,4.95
2018-06-20T12:17:47.997Z,2.45
2018-06-20T12:20:20.995Z,2.85
2018-06-20T12:22:54.277Z,1.80
2018-06-20T12:25:27.104Z,3.58
2018-06-20T12:28:00.390Z,3.50
2018-06-20T12:30:33.416Z,3.45
2018-06-20T12:33:06.268Z,2.87
2018-06-20T12:35:39.233Z,4.72
2018-06-20T12:38:12.377Z,3.08
2018-06-20T12:40:45.323Z,3.35
2018-06-20T12:43:18.304Z,4.30
2018-06-20T12:45:46.093Z,3.08
2018-06-20T12:48:13.420Z,2.40
2018-06-20T12:50:40.647Z,3.02
2018-06-20T12:53:07.875Z,4.55
2018-06-20T12:55:35.232Z,3.22
2018-06-20T12:58:02.570Z,3.37
2018-06-20T13:00:29.889Z,3.12
2018-06-20T13:02:57.187Z,3.47
2018-06-20T13:05:24.561Z,4.33
2018-06-20T13:07:52.123Z,2.72
2018-06-20T13:10:19.528Z,6.70
2018-06-20T13:12:46.906Z,3.47
2018-06-20T13:15:14.275Z,7.90
2018-06-20T13:17:41.575Z,6.95
2018-06-20T13:20:08.877Z,4.95
2018-06-20T13:22:36.133Z,2.70
2018-06-20T13:25:03.476Z,3.42
2018-06-20T13:27:36.432Z,4.85
2018-06-20T13:30:07.867Z,3.33
2018-06-20T13:32:40.807Z,6.92
2018-06-20T13:35:13.993Z,4.22
2018-06-20T13:37:46.857Z,4.30
2018-06-20T13:40:20.041Z,4.90
2018-06-20T13:42:53.045Z,6.08
2018-06-20T13:45:26.179Z,2.92
2018-06-20T13:47:58.943Z,3.33
2018-06-20T13:50:26.214Z,3.62
2018-06-20T13:52:53.532Z,3.67
2018-06-20T13:55:20.783Z,3.60
2018-06-20T13:57:48.308Z,2.60
2018-06-20T14:00:15.744Z,2.60
2018-06-20T14:02:43.136Z,3.55
2018-06-20T14:05:10.553Z,2.92
2018-06-20T14:07:38.004Z,4.20
2018-06-20T14:10:05.752Z,3.05
2018-06-20T14:12:33.129Z,5.33
2018-06-20T14:15:00.545Z,4.90
2018-06-20T14:17:27.964Z,2.75
2018-06-20T14:20:01.012Z,3.67
2018-06-20T14:22:28.267Z,3.47
2018-06-20T14:24:55.855Z,2.40
2018-06-20T14:27:23.339Z,3.55
2018-06-20T14:29:50.604Z,2.65
2018-06-20T14:32:23.647Z,3.12
2018-06-20T14:34:56.575Z,2.72
2018-06-20T14:37:29.479Z,2.87
2018-06-20T14:40:02.568Z,2.30
2018-06-20T14:42:36.110Z,3.90
2018-06-20T14:45:09.163Z,2.95
2018-06-20T14:47:36.453Z,3.83
2018-06-20T14:50:04.758Z,2.60
2018-06-20T14:52:32.350Z,2.70
2018-06-20T14:54:59.649Z,3.65
2018-06-20T14:57:26.968Z,2.90
2018-06-20T14:59:54.259Z,5.95
2018-06-20T15:02:22.238Z,3.00
2018-06-20T15:04:49.512Z,4.67
2018-06-20T15:07:16.880Z,3.47
2018-06-20T15:09:44.111Z,2.80
2018-06-20T15:12:11.338Z,2.80
2018-06-20T15:14:38.607Z,3.25
2018-06-20T15:17:11.464Z,5.20
2018-06-20T15:19:38.803Z,3.92
2018-06-20T15:22:06.151Z,2.72
2018-06-20T15:24:33.429Z,4.17
2018-06-20T15:27:06.266Z,4.15
2018-06-20T15:29:39.106Z,5.50
2018-06-20T15:32:11.997Z,2.95
2018-06-20T15:34:44.984Z,5.90
2018-06-20T15:37:18.217Z,3.12
2018-06-20T15:39:45.670Z,5.67
2018-06-20T15:42:12.928Z,6.05
2018-06-20T15:44:40.222Z,2.65
2018-06-20T15:47:07.529Z,3.25
2018-06-20T15:49:34.803Z,2.90
2018-06-20T15:52:02.107Z,4.67
2018-06-20T15:54:29.404Z,3.17
2018-06-20T15:56:56.744Z,5.90
2018-06-20T15:59:23.981Z,2.77
2018-06-20T16:01:51.527Z,3.15
2018-06-20T16:04:18.819Z,3.58
2018-06-20T16:06:46.110Z,5.62
2018-06-20T16:09:19.171Z,2.85
2018-06-20T16:11:46.467Z,2.85
2018-06-20T16:14:13.727Z,3.80
2018-06-20T16:16:41.066Z,2.80
2018-06-20T16:19:13.964Z,3.17
2018-06-20T16:21:46.958Z,4.40
2018-06-20T16:25:17.347Z,4.08
2018-06-20T16:27:50.174Z,3.92
2018-06-20T16:30:23.235Z,3.27
2018-06-20T16:32:50.564Z,3.55
2018-06-20T16:35:17.868Z,3.45
2018-06-20T16:37:45.207Z,3.17
2018-06-20T16:40:12.471Z,6.15
2018-06-20T16:42:39.819Z,3.87
2018-06-20T16:45:07.049Z,2.60
2018-06-20T16:47:34.287Z,2.70
2018-06-20T16:50:01.553Z,3.62
2018-06-20T16:52:28.803Z,2.98
2018-06-20T16:54:56.076Z,3.33
2018-06-20T16:57:23.394Z,4.35
2018-06-20T16:59:50.639Z,2.75
2018-06-20T17:02:23.513Z,4.42
2018-06-20T17:04:50.772Z,5.00
2018-06-20T17:07:18.853Z,2.67
2018-06-20T17:09:47.030Z,4.12
2018-06-20T17:12:20.148Z,2.90
2018-06-20T17:14:53.151Z,3.37
2018-06-20T17:17:25.980Z,5.47
2018-06-20T17:19:58.896Z,3.95
2018-06-20T17:22:31.728Z,3.52
2018-06-20T17:25:04.766Z,2.60
2018-06-20T17:27:36.028Z,2.62
2018-06-20T17:30:03.874Z,2.52
2018-06-20T17:32:31.173Z,4.33
2018-06-20T17:34:58.489Z,5.65
2018-06-20T17:37:25.781Z,4.30
2018-06-20T17:39:53.101Z,5.92
2018-06-20T17:42:20.601Z,4.60
2018-06-20T17:44:48.079Z,2.98
2018-06-20T17:47:15.326Z,5.42
2018-06-20T17:49:42.647Z,6.25
2018-06-20T17:52:11.907Z,4.15
2018-06-20T17:54:39.196Z,3.15
2018-06-20T17:57:06.548Z,2.75
2018-06-20T17:59:34.088Z,5.45
2018-06-20T18:02:01.450Z,2.77
2018-06-20T18:04:34.498Z,3.42
2018-06-20T18:07:07.611Z,3.33
2018-06-20T18:09:40.657Z,3.08
2018-06-20T18:12:13.721Z,4.85
2018-06-20T18:14:46.567Z,3.42
2018-06-20T18:17:13.826Z,5.25
2018-06-20T18:19:41.151Z,2.58
2018-06-20T18:22:08.428Z,3.47
2018-06-20T18:24:35.712Z,4.10
2018-06-20T18:27:03.013Z,3.75
2018-06-20T18:29:30.288Z,3.00
2018-06-20T18:31:58.045Z,3.12
2018-06-20T18:34:25.311Z,4.60
2018-06-20T18:36:52.598Z,4.75
2018-06-20T18:39:23.393Z,3.67
2018-06-20T18:41:50.911Z,7.30
2018-06-20T18:44:18.216Z,6.85
2018-06-20T18:46:45.501Z,5.12
2018-06-20T18:49:12.726Z,3.35
2018-06-20T18:51:40.081Z,4.58
2018-06-20T18:54:07.403Z,7.20
2018-06-20T18:56:34.767Z,4.65
2018-06-20T18:59:07.859Z,7.85
2018-06-20T19:01:40.895Z,5.83
2018-06-20T19:04:13.927Z,6.40
2018-06-20T19:06:46.895Z,6.85
2018-06-20T19:09:16.822Z,9.30
2018-06-20T19:11:44.615Z,7.17
2018-06-20T19:14:11.903Z,6.85
2018-06-20T19:16:39.357Z,6.05
2018-06-20T19:19:06.712Z,6.03
2018-06-20T19:21:34.219Z,4.25
2018-06-20T19:24:01.478Z,4.55
2018-06-20T19:26:28.945Z,5.25
2018-06-20T19:28:56.285Z,5.03
2018-06-20T19:31:23.676Z,7.40
2018-06-20T19:33:50.972Z,4.33
2018-06-20T19:36:18.257Z,3.70
2018-06-20T19:38:46.500Z,6.12
2018-06-20T19:41:13.920Z,7.03
2018-06-20T19:43:47.023Z,3.95
2018-06-20T19:46:14.691Z,4.00
2018-06-20T19:48:41.984Z,6.22
2018-06-20T19:51:09.505Z,4.85
2018-06-20T19:53:36.989Z,7.58
2018-06-20T19:56:04.377Z,8.18
2018-06-20T19:58:31.711Z,7.47
2018-06-20T20:00:59.167Z,5.50
2018-06-20T20:03:29.371Z,5.05
2018-06-20T20:05:56.702Z,5.30
2018-06-20T20:08:24.315Z,9.33
2018-06-20T20:10:52.085Z,4.85
2018-06-20T20:13:19.746Z,5.08
2018-06-20T20:15:47.165Z,6.53
2018-06-20T20:18:14.640Z,5.60
2018-06-20T20:20:42.061Z,7.05
2018-06-20T20:23:09.409Z,6.20
2018-06-20T20:25:36.868Z,5.12
2018-06-20T20:28:04.231Z,6.55
2018-06-20T20:30:31.560Z,6.17
2018-06-20T20:32:58.991Z,5.75
2018-06-20T20:35:26.391Z,4.92
2018-06-20T20:37:53.720Z,5.25
2018-06-20T20:40:21.080Z,11.12
2018-06-20T20:42:48.416Z,7.28
2018-06-20T20:45:15.773Z,6.30
2018-06-20T20:47:43.435Z,7.53
2018-06-20T20:50:11.068Z,7.40
2018-06-20T20:52:38.357Z,5.72
2018-06-20T20:55:05.950Z,6.80
2018-06-20T20:57:33.725Z,6.65
2018-06-20T21:00:01.151Z,6.12
2018-06-20T21:02:28.515Z,8.18
2018-06-20T21:04:55.897Z,7.25
2018-06-20T21:07:23.242Z,7.60
2018-06-20T21:09:50.827Z,6.92
2018-06-20T21:12:18.160Z,9.83
2018-06-20T21:14:45.488Z,7.60
2018-06-20T21:17:13.187Z,6.95
2018-06-20T21:19:40.484Z,8.53
2018-06-20T21:22:07.938Z,8.18
2018-06-20T21:24:35.289Z,11.45
2018-06-20T21:27:02.567Z,8.60
2018-06-20T21:29:29.904Z,8.45
2018-06-20T21:31:57.219Z,6.78
2018-06-20T21:34:24.640Z,7.87
2018-06-20T21:36:51.986Z,7.50
2018-06-20T21:39:21.323Z,7.47
2018-06-20T21:41:48.741Z,7.53
2018-06-20T21:44:16.051Z,7.62
2018-06-20T21:46:43.545Z,8.80
2018-06-20T21:49:10.831Z,7.72
2018-06-20T21:51:38.223Z,6.60
2018-06-20T21:54:05.568Z,6.92
2018-06-20T21:56:32.888Z,11.75
2018-06-20T21:59:00.316Z,8.43
2018-06-20T22:01:27.719Z,7.40
2018-06-20T22:03:55.192Z,8.75
2018-06-20T22:06:22.722Z,7.17
2018-06-20T22:08:50.067Z,10.28
2018-06-20T22:11:17.673Z,8.43
2018-06-20T22:13:44.972Z,6.90
2018-06-20T22:16:12.564Z,8.33
2018-06-20T22:18:39.832Z,9.28
2018-06-20T22:21:07.088Z,8.13
2018-06-20T22:23:34.406Z,7.17
2018-06-20T22:26:01.760Z,10.05
2018-06-20T22:28:29.037Z,8.33
2018-06-20T22:30:56.379Z,8.40
2018-06-20T22:33:23.712Z,7.83
2018-06-20T22:35:51.036Z,7.67
2018-06-20T22:38:18.280Z,8.60
2018-06-20T22:40:45.719Z,9.03
2018-06-20T22:43:13.004Z,10.28
2018-06-20T22:45:40.612Z,9.28
2018-06-20T22:48:08.183Z,9.35
2018-06-20T22:50:35.495Z,9.68
2018-06-20T22:53:02.939Z,9.75
2018-06-20T22:55:30.592Z,9.25
2018-06-20T22:57:57.871Z,9.05
2018-06-20T23:00:25.526Z,9.98
2018-06-20T23:02:52.924Z,9.35
2018-06-20T23:05:20.212Z,9.93
2018-06-20T23:07:47.561Z,9.48
2018-06-20T23:10:15.061Z,9.95
2018-06-20T23:12:42.388Z,9.50
2018-06-20T23:15:09.840Z,13.78
2018-06-20T23:17:37.274Z,9.83
2018-06-20T23:20:04.557Z,10.40
2018-06-20T23:22:31.876Z,11.28
2018-06-20T23:24:59.120Z,10.05
2018-06-20T23:27:26.526Z,10.35
2018-06-20T23:29:53.821Z,10.93
2018-06-20T23:32:21.256Z,10.23
2018-06-20T23:34:48.542Z,10.20
2018-06-20T23:37:16.116Z,10.65
2018-06-20T23:39:43.515Z,11.45
2018-06-20T23:42:10.812Z,10.38
2018-06-20T23:44:38.252Z,11.35
2018-06-20T23:47:05.578Z,10.58
2018-06-20T23:49:32.867Z,10.90
2018-06-20T23:52:00.515Z,10.45
2018-06-20T23:54:27.831Z,10.88
2018-06-20T23:56:55.285Z,11.22
2018-06-20T23:59:22.615Z,10.72
